Time;durP1;ratioP1;P1;durP2;ratioP2;P2;SDS_P1;SDS_P2;PMS_P1;PMS_P2;Temp;Humidity;BMP_temperature;BMP_pressure;BME280_temperature;BME280_humidity;BME280_pressure;Samples;Min_cycle;Max_cycle;Signal;HPM_P1;HPM_P2
2023/03/20 00:00:01;;;;;;;9.13;6.57;;;;;;;;;;5053803;28;20028;-61
2023/03/20 00:02:26;;;;;;;7.45;5.55;;;;;;;;;;5054691;28;20033;-61
2023/03/20 00:04:51;;;;;;;13.60;6.93;;;;;;;;;;5054219;28;20017;-61
2023/03/20 00:07:17;;;;;;;10.05;6.53;;;;;;;;;;5054515;28;20457;-61
2023/03/20 00:09:42;;;;;;;9.50;5.72;;;;;;;;;;5054491;28;20028;-61
2023/03/20 00:12:13;;;;;;;13.93;7.70;;;;;;;;;;5041107;28;20484;-61
2023/03/20 00:14:38;;;;;;;11.65;6.47;;;;;;;;;;5053654;28;20051;-61
2023/03/20 00:17:08;;;;;;;7.82;5.40;;;;;;;;;;5043036;28;20100;-61
2023/03/20 00:19:34;;;;;;;8.63;5.20;;;;;;;;;;5034569;28;20048;-62
2023/03/20 00:21:59;;;;;;;8.02;5.28;;;;;;;;;;5035206;28;20026;-61
2023/03/20 00:24:25;;;;;;;8.75;5.32;;;;;;;;;;5053526;28;20074;-62
2023/03/20 00:26:51;;;;;;;9.23;5.47;;;;;;;;;;5042758;28;20075;-61
2023/03/20 00:29:21;;;;;;;9.63;5.50;;;;;;;;;;5035054;28;20506;-61
2023/03/20 00:31:46;;;;;;;6.80;5.30;;;;;;;;;;5047773;28;20033;-61
2023/03/20 00:34:13;;;;;;;7.05;5.13;;;;;;;;;;5053731;28;20040;-61
2023/03/20 00:36:38;;;;;;;10.32;5.40;;;;;;;;;;5054547;28;20033;-61
2023/03/20 00:39:03;;;;;;;14.73;6.85;;;;;;;;;;5053194;28;20142;-61
2023/03/20 00:41:36;;;;;;;8.45;5.82;;;;;;;;;;5054074;28;20032;-61
2023/03/20 00:44:06;;;;;;;7.95;6.22;;;;;;;;;;5053506;28;20028;-61
2023/03/20 00:46:34;;;;;;;12.45;5.65;;;;;;;;;;5052943;28;20048;-61
2023/03/20 00:49:00;;;;;;;9.88;5.38;;;;;;;;;;5046877;28;20017;-61
2023/03/20 00:51:26;;;;;;;7.80;5.65;;;;;;;;;;5046735;28;20047;-61
2023/03/20 00:53:51;;;;;;;9.88;5.80;;;;;;;;;;5053893;28;20621;-61
2023/03/20 00:56:28;;;;;;;8.23;5.15;;;;;;;;;;5052932;28;20029;-61
2023/03/20 00:58:53;;;;;;;10.82;5.35;;;;;;;;;;5033995;28;20084;-61
2023/03/20 01:01:19;;;;;;;8.52;5.90;;;;;;;;;;5034144;28;20107;-61
2023/03/20 01:03:44;;;;;;;9.90;5.50;;;;;;;;;;5034409;28;20026;-61
2023/03/20 01:06:11;;;;;;;8.30;5.82;;;;;;;;;;5033948;28;20059;-61
2023/03/20 01:08:36;;;;;;;13.63;6.40;;;;;;;;;;5034315;28;20522;-61
2023/03/20 01:11:02;;;;;;;8.43;6.38;;;;;;;;;;5050442;28;20029;-60
2023/03/20 01:13:28;;;;;;;11.25;6.45;;;;;;;;;;5053086;28;20029;-61
2023/03/20 01:15:54;;;;;;;12.40;6.22;;;;;;;;;;5052505;28;20036;-61
2023/03/20 01:18:20;;;;;;;11.77;6.90;;;;;;;;;;5053886;28;20016;-61
2023/03/20 01:20:46;;;;;;;9.95;6.13;;;;;;;;;;5051867;28;20021;-61
2023/03/20 01:23:11;;;;;;;11.70;5.93;;;;;;;;;;5052933;28;20032;-61
2023/03/20 01:25:37;;;;;;;13.00;6.80;;;;;;;;;;5046918;28;20111;-61
2023/03/20 01:28:09;;;;;;;8.88;6.10;;;;;;;;;;5033891;28;20025;-61
2023/03/20 01:30:34;;;;;;;8.57;5.65;;;;;;;;;;5045631;28;20035;-61
2023/03/20 01:33:01;;;;;;;10.45;6.65;;;;;;;;;;5034472;28;20026;-61
2023/03/20 01:35:27;;;;;;;8.55;6.10;;;;;;;;;;5053025;28;20021;-61
2023/03/20 01:37:55;;;;;;;10.45;5.78;;;;;;;;;;5049482;28;20028;-61
2023/03/20 01:40:23;;;;;;;10.85;5.60;;;;;;;;;;5052787;28;20043;-61
2023/03/20 01:42:48;;;;;;;8.30;5.40;;;;;;;;;;5052458;28;20071;-61
2023/03/20 01:45:19;;;;;;;8.45;5.30;;;;;;;;;;5051792;28;20056;-61
2023/03/20 01:47:44;;;;;;;14.75;5.00;;;;;;;;;;5053131;28;20116;-61
2023/03/20 01:50:21;;;;;;;9.48;5.72;;;;;;;;;;5052526;28;20064;-61
2023/03/20 01:52:47;;;;;;;9.77;5.10;;;;;;;;;;5052296;28;20044;-61
2023/03/20 01:55:12;;;;;;;11.35;5.15;;;;;;;;;;5053049;28;20052;-61
2023/03/20 01:57:38;;;;;;;8.63;5.32;;;;;;;;;;5048147;28;20021;-61
2023/03/20 02:00:10;;;;;;;7.70;5.28;;;;;;;;;;5047377;28;20040;-61
2023/03/20 02:02:37;;;;;;;10.18;4.93;;;;;;;;;;5038429;28;20494;-61
2023/03/20 02:05:06;;;;;;;6.90;4.95;;;;;;;;;;5052157;28;20017;-61
2023/03/20 02:07:32;;;;;;;14.10;5.68;;;;;;;;;;5052346;28;20024;-61
2023/03/20 02:09:58;;;;;;;13.80;6.00;;;;;;;;;;5052499;28;20025;-61
2023/03/20 02:12:24;;;;;;;10.15;5.72;;;;;;;;;;5052365;28;20025;-61
2023/03/20 02:14:49;;;;;;;9.48;6.00;;;;;;;;;;5052108;28;20071;-61
2023/03/20 02:17:15;;;;;;;10.90;6.28;;;;;;;;;;5051350;28;20024;-61
2023/03/20 02:19:57;;;;;;;9.77;6.35;;;;;;;;;;5052281;28;20116;-61
2023/03/20 02:22:40;;;;;;;15.90;6.68;;;;;;;;;;5051908;28;20021;-61
2023/03/20 02:25:06;;;;;;;9.55;6.68;;;;;;;;;;5052162;28;20032;-61
2023/03/20 02:27:41;;;;;;;10.30;7.13;;;;;;;;;;5039435;28;20021;-61
2023/03/20 02:30:12;;;;;;;18.70;7.93;;;;;;;;;;5046352;28;20017;-61
2023/03/20 02:32:47;;;;;;;16.40;9.63;;;;;;;;;;5032684;28;20036;-61
2023/03/20 02:35:29;;;;;;;13.63;9.65;;;;;;;;;;5033722;28;20093;-61
2023/03/20 02:37:54;;;;;;;22.13;9.98;;;;;;;;;;5054149;28;20032;-61
2023/03/20 02:40:20;;;;;;;20.10;11.25;;;;;;;;;;5056811;28;20033;-61
2023/03/20 02:42:54;;;;;;;20.13;11.77;;;;;;;;;;5055878;28;20439;-61
2023/03/20 02:45:25;;;;;;;16.73;11.65;;;;;;;;;;5056244;28;20267;-61
2023/03/20 02:48:12;;;;;;;24.70;11.93;;;;;;;;;;5050571;28;20056;-61
2023/03/20 02:50:52;;;;;;;17.10;11.35;;;;;;;;;;5051437;28;20037;-61
2023/03/20 02:53:17;;;;;;;19.20;11.75;;;;;;;;;;5056398;28;20033;-61
2023/03/20 02:55:47;;;;;;;20.05;12.15;;;;;;;;;;5042702;28;20116;-61
2023/03/20 02:58:23;;;;;;;17.55;10.68;;;;;;;;;;5056406;28;20037;-61
2023/03/20 03:01:00;;;;;;;20.40;12.10;;;;;;;;;;5055214;28;20025;-61
2023/03/20 03:03:37;;;;;;;14.88;11.25;;;;;;;;;;5055612;28;20029;-61
2023/03/20 03:06:14;;;;;;;15.27;11.10;;;;;;;;;;5056030;28;20056;-61
2023/03/20 03:08:42;;;;;;;23.20;13.15;;;;;;;;;;5055192;28;20025;-61
2023/03/20 03:11:08;;;;;;;22.42;11.95;;;;;;;;;;5049708;28;20028;-61
2023/03/20 03:13:36;;;;;;;18.17;11.57;;;;;;;;;;5055491;28;20041;-61
2023/03/20 03:16:04;;;;;;;18.17;11.75;;;;;;;;;;5049627;28;20021;-61
2023/03/20 03:18:31;;;;;;;16.45;10.93;;;;;;;;;;5045510;28;20423;-61
2023/03/20 03:20:58;;;;;;;21.60;12.25;;;;;;;;;;5052984;28;20028;-61
2023/03/20 03:23:31;;;;;;;18.08;11.80;;;;;;;;;;5044364;28;20026;-61
2023/03/20 03:25:59;;;;;;;20.73;12.25;;;;;;;;;;5042543;28;20037;-61
2023/03/20 03:28:25;;;;;;;18.05;11.15;;;;;;;;;;5048405;28;20013;-61
2023/03/20 03:30:52;;;;;;;20.90;11.38;;;;;;;;;;5042130;28;20036;-61
2023/03/20 03:33:26;;;;;;;19.13;11.23;;;;;;;;;;5036227;28;20108;-61
2023/03/20 03:35:51;;;;;;;;;;;;;;;;;;5037062;28;20504;-61
2023/03/20 03:38:24;;;;;;;14.88;10.20;;;;;;;;;;5036775;28;19959;-61
2023/03/20 03:40:55;;;;;;;20.10;11.35;;;;;;;;;;5036407;28;20021;-61
2023/03/20 03:43:27;;;;;;;17.55;12.30;;;;;;;;;;5036259;28;20100;-61
2023/03/20 03:45:56;;;;;;;16.75;11.18;;;;;;;;;;5036059;28;20045;-61
2023/03/20 03:48:24;;;;;;;19.88;11.82;;;;;;;;;;5036065;28;20032;-61
2023/03/20 03:51:01;;;;;;;19.42;12.15;;;;;;;;;;5036474;28;20025;-61
2023/03/20 03:53:29;;;;;;;17.65;12.13;;;;;;;;;;5035531;28;20464;-61
2023/03/20 03:55:56;;;;;;;22.80;12.25;;;;;;;;;;5036112;28;20088;-61
2023/03/20 03:58:27;;;;;;;15.55;11.52;;;;;;;;;;5048343;28;20650;-60
2023/03/20 04:00:54;;;;;;;16.92;12.65;;;;;;;;;;5035871;28;20057;-61
2023/03/20 04:03:22;;;;;;;16.17;11.40;;;;;;;;;;5036451;28;20132;-61
2023/03/20 04:05:49;;;;;;;16.30;11.02;;;;;;;;;;5042901;28;20099;-61
2023/03/20 04:08:15;;;;;;;16.63;11.70;;;;;;;;;;5042272;28;20025;-61
2023/03/20 04:10:40;;;;;;;19.77;11.48;;;;;;;;;;5048915;28;20114;-61
2023/03/20 04:13:06;;;;;;;25.77;11.80;;;;;;;;;;5055030;28;20037;-61
2023/03/20 04:15:31;;;;;;;20.80;12.52;;;;;;;;;;5054525;28;20025;-61
2023/03/20 04:17:56;;;;;;;19.23;12.43;;;;;;;;;;5054327;28;20361;-61
2023/03/20 04:20:22;;;;;;;14.65;10.80;;;;;;;;;;5054070;28;20033;-61
2023/03/20 04:22:47;;;;;;;17.20;11.73;;;;;;;;;;5054566;28;20127;-61
2023/03/20 04:25:23;;;;;;;13.85;10.35;;;;;;;;;;5054136;28;20021;-61
2023/03/20 04:27:49;;;;;;;16.52;10.98;;;;;;;;;;5054176;28;20032;-61
2023/03/20 04:30:14;;;;;;;18.98;11.13;;;;;;;;;;5047461;28;20364;-61
2023/03/20 04:32:39;;;;;;;16.55;10.98;;;;;;;;;;5047750;28;20021;-61
2023/03/20 04:35:05;;;;;;;22.52;11.38;;;;;;;;;;5035045;28;20384;-61
2023/03/20 04:37:30;;;;;;;18.30;10.48;;;;;;;;;;5035447;28;20116;-61
2023/03/20 04:39:55;;;;;;;15.10;10.07;;;;;;;;;;5035056;28;20037;-61
2023/03/20 04:42:21;;;;;;;15.57;10.20;;;;;;;;;;5035171;28;20473;-61
2023/03/20 04:44:46;;;;;;;17.75;10.20;;;;;;;;;;5035355;28;20029;-61
2023/03/20 04:47:11;;;;;;;18.25;11.07;;;;;;;;;;5035070;28;20026;-61
2023/03/20 04:49:36;;;;;;;18.10;10.77;;;;;;;;;;5035818;28;20032;-61
2023/03/20 04:52:02;;;;;;;13.82;10.23;;;;;;;;;;5036207;28;20033;-61
2023/03/20 04:54:27;;;;;;;16.48;9.68;;;;;;;;;;5042419;28;20435;-61
2023/03/20 04:56:52;;;;;;;14.30;10.43;;;;;;;;;;5041840;28;20104;-61
2023/03/20 04:59:18;;;;;;;14.55;10.05;;;;;;;;;;5039429;28;20043;-60
2023/03/20 05:01:43;;;;;;;15.63;10.75;;;;;;;;;;5041007;28;20108;-61
2023/03/20 05:04:08;;;;;;;18.27;11.52;;;;;;;;;;5035015;28;20041;-60
2023/03/20 05:06:34;;;;;;;15.32;10.88;;;;;;;;;;5047475;28;20475;-60
2023/03/20 05:08:59;;;;;;;18.33;10.75;;;;;;;;;;5034717;28;20029;-60
2023/03/20 05:11:25;;;;;;;17.88;10.32;;;;;;;;;;5053849;28;20074;-61
2023/03/20 05:13:50;;;;;;;15.43;10.55;;;;;;;;;;5052972;28;20029;-61
2023/03/20 05:16:16;;;;;;;19.23;12.07;;;;;;;;;;5053602;28;20387;-61
2023/03/20 05:18:41;;;;;;;19.00;11.70;;;;;;;;;;5052795;28;20067;-61
2023/03/20 05:21:06;;;;;;;20.52;13.43;;;;;;;;;;5052928;28;20046;-61
2023/03/20 05:23:32;;;;;;;18.23;12.13;;;;;;;;;;5052810;28;20037;-61
2023/03/20 05:25:57;;;;;;;21.05;13.68;;;;;;;;;;5053758;28;20016;-61
2023/03/20 05:28:22;;;;;;;23.05;13.60;;;;;;;;;;5052814;28;20589;-61
2023/03/20 05:30:47;;;;;;;19.80;13.00;;;;;;;;;;5052554;28;20090;-61
2023/03/20 05:33:13;;;;;;;20.40;14.02;;;;;;;;;;5052320;28;20048;-61
2023/03/20 05:35:38;;;;;;;21.83;13.05;;;;;;;;;;5053038;28;20371;-61
2023/03/20 05:38:03;;;;;;;23.90;13.75;;;;;;;;;;5052182;28;20032;-61
2023/03/20 05:40:28;;;;;;;21.13;13.63;;;;;;;;;;5052997;28;20495;-61
2023/03/20 05:42:54;;;;;;;22.58;14.88;;;;;;;;;;5052096;28;20468;-61
2023/03/20 05:45:19;;;;;;;25.70;13.80;;;;;;;;;;5053228;28;20060;-61
2023/03/20 05:47:44;;;;;;;30.70;15.00;;;;;;;;;;5051397;28;20021;-61
2023/03/20 05:50:10;;;;;;;28.65;15.18;;;;;;;;;;5052749;28;20124;-61
2023/03/20 05:52:35;;;;;;;24.83;16.35;;;;;;;;;;5051002;28;20057;-61
2023/03/20 05:55:01;;;;;;;28.02;15.27;;;;;;;;;;5051651;28;20502;-61
2023/03/20 05:57:26;;;;;;;23.65;15.15;;;;;;;;;;5050978;28;20017;-61
2023/03/20 05:59:51;;;;;;;25.38;14.95;;;;;;;;;;5052286;28;20106;-61
2023/03/20 06:02:17;;;;;;;27.08;15.00;;;;;;;;;;5050684;28;20017;-61
2023/03/20 06:04:42;;;;;;;27.08;14.57;;;;;;;;;;5052393;28;20031;-61
2023/03/20 06:07:07;;;;;;;27.17;15.77;;;;;;;;;;5052609;28;20409;-61
2023/03/20 06:09:33;;;;;;;31.52;15.60;;;;;;;;;;5051350;28;20055;-61
2023/03/20 06:11:58;;;;;;;22.67;14.23;;;;;;;;;;5041896;28;20071;-61
2023/03/20 06:14:24;;;;;;;19.40;14.40;;;;;;;;;;5044981;28;20025;-61
2023/03/20 06:16:49;;;;;;;19.83;14.38;;;;;;;;;;5042148;28;20031;-61
2023/03/20 06:19:15;;;;;;;22.00;14.55;;;;;;;;;;5045440;28;20017;-61
2023/03/20 06:21:40;;;;;;;28.65;16.25;;;;;;;;;;5046283;28;20368;-60
2023/03/20 06:24:05;;;;;;;21.10;14.75;;;;;;;;;;5046228;28;20463;-60
2023/03/20 06:26:31;;;;;;;29.45;15.40;;;;;;;;;;5042094;28;20025;-60
2023/03/20 06:28:56;;;;;;;26.23;16.42;;;;;;;;;;5049697;28;20379;-60
2023/03/20 06:31:22;;;;;;;22.27;12.80;;;;;;;;;;5048825;28;20049;-61
2023/03/20 06:33:47;;;;;;;19.90;13.70;;;;;;;;;;5040592;28;20434;-61
2023/03/20 06:36:13;;;;;;;25.75;14.00;;;;;;;;;;5044557;28;20043;-61
2023/03/20 06:38:38;;;;;;;24.55;13.07;;;;;;;;;;5046732;28;20107;-61
2023/03/20 06:41:04;;;;;;;17.52;12.38;;;;;;;;;;5047618;28;20471;-61
2023/03/20 06:43:29;;;;;;;18.90;13.45;;;;;;;;;;5047354;28;20032;-61
2023/03/20 06:45:55;;;;;;;21.98;12.48;;;;;;;;;;5044281;28;20032;-61
2023/03/20 06:48:23;;;;;;;19.35;13.07;;;;;;;;;;5046583;28;20617;-61
2023/03/20 06:50:49;;;;;;;26.58;12.90;;;;;;;;;;5047694;28;20419;-60
2023/03/20 06:53:15;;;;;;;21.02;12.85;;;;;;;;;;5040756;28;20033;-61
2023/03/20 06:55:41;;;;;;;18.10;11.75;;;;;;;;;;5048303;28;20025;-61
2023/03/20 06:58:06;;;;;;;17.58;12.80;;;;;;;;;;5041565;28;20112;-61
2023/03/20 07:00:31;;;;;;;21.13;11.43;;;;;;;;;;5040889;28;20017;-61
2023/03/20 07:02:57;;;;;;;20.33;12.18;;;;;;;;;;5041187;28;20483;-61
2023/03/20 07:05:22;;;;;;;23.70;12.38;;;;;;;;;;5044859;28;20044;-61
2023/03/20 07:07:47;;;;;;;18.55;11.75;;;;;;;;;;5047123;28;20029;-61
2023/03/20 07:10:13;;;;;;;19.15;12.70;;;;;;;;;;5045040;28;20032;-61
2023/03/20 07:12:38;;;;;;;19.38;11.35;;;;;;;;;;5051140;28;20446;-61
2023/03/20 07:15:04;;;;;;;16.00;12.07;;;;;;;;;;5050455;28;20471;-61
2023/03/20 07:17:29;;;;;;;15.77;10.65;;;;;;;;;;5046941;28;20079;-61
2023/03/20 07:19:55;;;;;;;21.30;11.82;;;;;;;;;;5051460;28;20033;-62
2023/03/20 07:22:22;;;;;;;17.23;10.70;;;;;;;;;;5044313;28;20112;-61
2023/03/20 07:24:47;;;;;;;19.50;10.50;;;;;;;;;;5049820;28;20033;-61
2023/03/20 07:27:12;;;;;;;16.63;10.55;;;;;;;;;;5046359;28;20044;-61
2023/03/20 07:29:38;;;;;;;18.23;10.35;;;;;;;;;;5051569;28;20094;-61
2023/03/20 07:32:03;;;;;;;21.77;10.60;;;;;;;;;;5035261;28;20025;-61
2023/03/20 07:34:28;;;;;;;16.50;9.38;;;;;;;;;;5039330;28;20498;-61
2023/03/20 07:36:54;;;;;;;12.43;8.55;;;;;;;;;;5034822;28;20036;-61
2023/03/20 07:39:19;;;;;;;18.27;9.68;;;;;;;;;;5037613;28;20107;-61
2023/03/20 07:41:45;;;;;;;14.55;9.05;;;;;;;;;;5045143;28;20034;-61
2023/03/20 07:44:10;;;;;;;15.57;9.05;;;;;;;;;;5047614;28;20036;-61
2023/03/20 07:46:35;;;;;;;18.27;8.70;;;;;;;;;;5050764;28;20041;-61
2023/03/20 07:49:01;;;;;;;15.98;8.07;;;;;;;;;;5046628;28;20025;-61
2023/03/20 07:51:26;;;;;;;14.63;8.38;;;;;;;;;;5046292;28;20102;-61
2023/03/20 07:53:51;;;;;;;17.23;7.85;;;;;;;;;;5045307;28;20084;-61
2023/03/20 07:56:17;;;;;;;18.63;7.95;;;;;;;;;;5051262;28;20021;-61
2023/03/20 07:58:42;;;;;;;13.35;8.55;;;;;;;;;;5045689;28;20052;-61
2023/03/20 08:01:07;;;;;;;16.05;7.60;;;;;;;;;;5045571;28;20462;-61
2023/03/20 08:03:32;;;;;;;17.13;7.60;;;;;;;;;;5048572;28;20024;-61
2023/03/20 08:05:58;;;;;;;14.18;6.63;;;;;;;;;;5048642;28;20486;-61
2023/03/20 08:08:23;;;;;;;11.18;6.38;;;;;;;;;;5049719;28;20032;-60
2023/03/20 08:10:48;;;;;;;13.85;7.07;;;;;;;;;;5052570;28;20029;-61
2023/03/20 08:13:14;;;;;;;15.18;6.85;;;;;;;;;;5053465;28;20036;-61
2023/03/20 08:15:39;;;;;;;13.57;6.32;;;;;;;;;;5051989;28;20091;-61
2023/03/20 08:18:05;;;;;;;11.15;5.65;;;;;;;;;;5053399;28;20033;-61
2023/03/20 08:20:30;;;;;;;12.23;5.65;;;;;;;;;;5053326;28;20029;-61
2023/03/20 08:22:55;;;;;;;12.25;5.60;;;;;;;;;;5052421;28;20041;-61
2023/03/20 08:25:21;;;;;;;10.68;5.03;;;;;;;;;;5052686;28;20028;-61
2023/03/20 08:27:47;;;;;;;15.80;5.30;;;;;;;;;;5052679;28;20029;-61
2023/03/20 08:30:13;;;;;;;6.72;4.53;;;;;;;;;;5054322;28;20029;-61
2023/03/20 08:32:38;;;;;;;10.65;4.72;;;;;;;;;;5039433;28;20104;-63
2023/03/20 08:35:04;;;;;;;15.27;4.93;;;;;;;;;;5040905;28;20087;-61
2023/03/20 08:37:29;;;;;;;15.00;5.20;;;;;;;;;;5053035;28;20025;-61
2023/03/20 08:39:54;;;;;;;10.23;4.85;;;;;;;;;;5034790;28;20025;-61
2023/03/20 08:42:20;;;;;;;9.85;4.80;;;;;;;;;;5036876;28;20480;-61
2023/03/20 08:44:47;;;;;;;8.45;4.35;;;;;;;;;;5046676;28;20487;-61
2023/03/20 08:47:13;;;;;;;9.27;4.20;;;;;;;;;;5045087;28;20467;-61
2023/03/20 08:49:38;;;;;;;7.03;4.32;;;;;;;;;;5046058;28;20040;-61
2023/03/20 08:52:03;;;;;;;9.25;4.30;;;;;;;;;;5037866;28;20033;-61
2023/03/20 08:54:29;;;;;;;17.75;4.10;;;;;;;;;;5040962;28;20036;-61
2023/03/20 08:56:55;;;;;;;13.20;4.70;;;;;;;;;;5038439;28;20046;-61
2023/03/20 08:59:20;;;;;;;6.63;3.95;;;;;;;;;;5051789;28;20055;-62
2023/03/20 09:01:46;;;;;;;9.68;4.43;;;;;;;;;;5051581;28;20722;-61
2023/03/20 09:04:14;;;;;;;11.98;4.90;;;;;;;;;;5051933;28;20025;-61
2023/03/20 09:06:39;;;;;;;9.95;3.60;;;;;;;;;;5050306;28;20021;-61
2023/03/20 09:09:05;;;;;;;9.52;4.65;;;;;;;;;;5051748;28;20029;-61
2023/03/20 09:11:31;;;;;;;11.73;5.43;;;;;;;;;;5051796;28;20024;-61
2023/03/20 09:13:56;;;;;;;10.68;4.90;;;;;;;;;;5041797;28;20025;-61
2023/03/20 09:16:21;;;;;;;9.43;4.25;;;;;;;;;;5047196;28;20021;-61
2023/03/20 09:18:46;;;;;;;13.23;4.75;;;;;;;;;;5042103;28;20021;-61
2023/03/20 09:21:12;;;;;;;11.82;5.03;;;;;;;;;;5051055;28;20113;-61
2023/03/20 09:23:37;;;;;;;12.23;4.65;;;;;;;;;;5045142;28;20037;-61
2023/03/20 09:26:02;;;;;;;14.27;4.90;;;;;;;;;;5045377;28;20017;-61
2023/03/20 09:28:28;;;;;;;12.20;4.85;;;;;;;;;;5044545;28;20024;-61
2023/03/20 09:30:56;;;;;;;10.50;5.00;;;;;;;;;;5043601;28;20028;-60
2023/03/20 09:33:22;;;;;;;10.65;5.25;;;;;;;;;;5038474;28;20029;-61
2023/03/20 09:35:47;;;;;;;8.20;4.20;;;;;;;;;;5042559;28;20117;-61
2023/03/20 09:38:13;;;;;;;13.90;3.78;;;;;;;;;;5037339;28;20028;-61
2023/03/20 09:41:00;;;;;;;11.73;5.72;;;;;;;;;;5042139;28;20023;-61
2023/03/20 09:43:36;;;;;;;9.80;4.35;;;;;;;;;;5044864;28;20091;-61
2023/03/20 09:46:27;;;;;;;12.63;4.00;;;;;;;;;;5043615;28;20099;-61
2023/03/20 09:49:16;;;;;;;13.57;5.45;;;;;;;;;;5052392;28;20150;-61
2023/03/20 09:51:52;;;;;;;15.52;5.80;;;;;;;;;;5047886;28;20037;-61
2023/03/20 09:54:17;;;;;;;11.20;4.57;;;;;;;;;;5047329;28;20033;-61
2023/03/20 09:56:42;;;;;;;10.00;4.33;;;;;;;;;;5049347;28;20533;-60
2023/03/20 09:59:13;;;;;;;6.55;3.97;;;;;;;;;;5049777;28;20354;-60
2023/03/20 10:01:50;;;;;;;12.35;4.65;;;;;;;;;;5050546;28;20078;-61
2023/03/20 10:04:15;;;;;;;11.43;5.13;;;;;;;;;;5052452;28;20090;-61
2023/03/20 10:06:41;;;;;;;15.00;4.88;;;;;;;;;;5051468;28;20128;-60
2023/03/20 10:09:12;;;;;;;9.30;4.88;;;;;;;;;;5045823;28;20428;-60
2023/03/20 10:11:40;;;;;;;8.85;4.60;;;;;;;;;;5050170;28;20032;-60
2023/03/20 10:14:24;;;;;;;7.72;4.70;;;;;;;;;;5050005;28;20467;-60
2023/03/20 10:17:08;;;;;;;9.45;5.40;;;;;;;;;;5050867;28;20036;-61
2023/03/20 10:20:02;;;;;;;12.13;5.27;;;;;;;;;;5046727;28;20040;-61
2023/03/20 10:22:31;;;;;;;9.75;5.15;;;;;;;;;;5042141;28;20036;-62
2023/03/20 10:25:00;;;;;;;12.85;4.57;;;;;;;;;;5047506;28;20033;-61
2023/03/20 10:27:31;;;;;;;8.45;4.78;;;;;;;;;;5044909;28;20083;-60
2023/03/20 10:30:04;;;;;;;16.00;5.18;;;;;;;;;;5048352;28;20044;-61
2023/03/20 10:32:35;;;;;;;9.30;4.75;;;;;;;;;;5048130;28;20037;-61
2023/03/20 10:35:19;;;;;;;9.48;5.20;;;;;;;;;;5040099;28;20094;-61
2023/03/20 10:37:50;;;;;;;9.43;4.63;;;;;;;;;;5049151;28;20104;-61
2023/03/20 10:40:26;;;;;;;7.05;4.43;;;;;;;;;;5045359;28;20057;-61
2023/03/20 10:42:52;;;;;;;12.60;5.47;;;;;;;;;;5036027;28;20035;-61
2023/03/20 10:45:18;;;;;;;9.32;5.13;;;;;;;;;;5041107;28;20075;-61
2023/03/20 10:47:45;;;;;;;11.37;5.83;;;;;;;;;;5042304;28;20029;-61
2023/03/20 10:50:15;;;;;;;12.45;5.75;;;;;;;;;;5039977;28;20658;-61
2023/03/20 10:52:41;;;;;;;9.40;4.40;;;;;;;;;;5035077;28;20089;-61
2023/03/20 10:55:13;;;;;;;20.20;5.03;;;;;;;;;;5035154;28;20057;-61
2023/03/20 10:57:40;;;;;;;8.55;4.45;;;;;;;;;;5036627;28;20029;-61
2023/03/20 11:00:11;;;;;;;9.07;4.95;;;;;;;;;;5046607;28;20039;-61
2023/03/20 11:02:36;;;;;;;14.27;5.57;;;;;;;;;;5038387;28;20036;-61
2023/03/20 11:05:10;;;;;;;11.13;5.25;;;;;;;;;;5045287;28;20390;-61
2023/03/20 11:07:35;;;;;;;11.70;5.57;;;;;;;;;;5047373;28;20030;-61
2023/03/20 11:10:04;;;;;;;13.15;6.03;;;;;;;;;;5046116;28;20464;-61
2023/03/20 11:12:33;;;;;;;8.80;5.22;;;;;;;;;;5040300;28;20029;-61
2023/03/20 11:14:59;;;;;;;9.10;4.80;;;;;;;;;;5044266;28;20025;-61
2023/03/20 11:17:27;;;;;;;10.30;4.68;;;;;;;;;;5052614;28;20029;-61
2023/03/20 11:19:52;;;;;;;8.50;4.43;;;;;;;;;;5053436;28;20036;-61
2023/03/20 11:22:17;;;;;;;10.05;4.72;;;;;;;;;;5050089;28;20025;-61
2023/03/20 11:24:47;;;;;;;11.40;4.60;;;;;;;;;;5052554;28;20040;-61
2023/03/20 11:27:23;;;;;;;9.55;5.72;;;;;;;;;;5053186;28;20332;-61
2023/03/20 11:29:49;;;;;;;8.15;4.45;;;;;;;;;;5050598;28;20063;-61
2023/03/20 11:32:17;;;;;;;13.63;5.00;;;;;;;;;;5045154;28;20039;-61
2023/03/20 11:34:42;;;;;;;13.63;4.57;;;;;;;;;;5053159;28;20066;-61
2023/03/20 11:37:31;;;;;;;7.72;4.22;;;;;;;;;;5051942;28;20102;-61
2023/03/20 11:40:11;;;;;;;9.05;4.45;;;;;;;;;;5046496;28;20508;-61
2023/03/20 11:42:37;;;;;;;8.18;4.45;;;;;;;;;;5049857;28;20098;-61
2023/03/20 11:45:04;;;;;;;9.82;4.68;;;;;;;;;;5048326;28;20029;-61
2023/03/20 11:47:32;;;;;;;8.18;4.25;;;;;;;;;;5048238;28;20391;-61
2023/03/20 11:49:59;;;;;;;11.23;4.63;;;;;;;;;;5049599;28;20084;-61
2023/03/20 11:52:31;;;;;;;13.80;4.75;;;;;;;;;;5052438;28;20475;-61
2023/03/20 11:54:57;;;;;;;10.93;4.35;;;;;;;;;;5053095;28;20029;-61
2023/03/20 11:57:34;;;;;;;9.20;3.75;;;;;;;;;;5049945;28;20096;-61
2023/03/20 12:00:06;;;;;;;7.72;4.22;;;;;;;;;;5041000;28;20061;-60
2023/03/20 12:02:31;;;;;;;11.65;4.53;;;;;;;;;;5049853;28;20025;-61
2023/03/20 12:05:00;;;;;;;10.07;4.25;;;;;;;;;;5050571;28;20032;-61
2023/03/20 12:07:32;;;;;;;9.15;4.55;;;;;;;;;;5050890;28;20068;-61
2023/03/20 12:10:00;;;;;;;15.30;4.82;;;;;;;;;;5049151;28;21981;-61
2023/03/20 12:12:35;;;;;;;10.73;4.25;;;;;;;;;;5038342;28;20103;-60
2023/03/20 12:15:06;;;;;;;9.73;4.35;;;;;;;;;;5036898;28;20029;-61
2023/03/20 12:17:35;;;;;;;9.73;5.05;;;;;;;;;;5036102;28;20505;-61
2023/03/20 12:20:04;;;;;;;9.13;4.85;;;;;;;;;;5034274;28;20041;-63
2023/03/20 12:22:32;;;;;;;9.10;4.38;;;;;;;;;;5044170;28;20403;-61
2023/03/20 12:25:01;;;;;;;11.10;4.88;;;;;;;;;;5045928;28;20025;-60
2023/03/20 12:27:28;;;;;;;15.00;4.18;;;;;;;;;;5041457;28;20021;-60
2023/03/20 12:29:53;;;;;;;12.07;4.32;;;;;;;;;;5048967;28;20088;-61
2023/03/20 12:32:23;;;;;;;17.97;4.00;;;;;;;;;;5052462;28;20439;-61
2023/03/20 12:35:06;;;;;;;8.05;4.10;;;;;;;;;;5049210;28;20295;-60
2023/03/20 12:37:33;;;;;;;11.50;4.40;;;;;;;;;;5050881;28;20041;-64
2023/03/20 12:39:59;;;;;;;7.75;3.97;;;;;;;;;;5051731;28;20021;-62
2023/03/20 12:42:30;;;;;;;13.35;4.43;;;;;;;;;;5050026;28;20103;-63
2023/03/20 12:45:00;;;;;;;11.15;4.13;;;;;;;;;;5040611;28;20029;-62
2023/03/20 12:47:43;;;;;;;13.20;4.43;;;;;;;;;;5049335;28;20037;-62
2023/03/20 12:50:27;;;;;;;8.63;3.88;;;;;;;;;;5052450;28;20025;-62
2023/03/20 12:52:58;;;;;;;8.60;3.80;;;;;;;;;;5050935;28;20479;-63
2023/03/20 12:55:29;;;;;;;8.82;4.15;;;;;;;;;;5049988;28;20055;-62
2023/03/20 12:58:17;;;;;;;8.07;4.03;;;;;;;;;;5044773;28;20519;-62
2023/03/20 13:00:48;;;;;;;10.30;3.72;;;;;;;;;;5046760;28;20029;-62
2023/03/20 13:03:16;;;;;;;9.02;3.85;;;;;;;;;;5051654;28;20591;-62
2023/03/20 13:05:52;;;;;;;11.80;4.00;;;;;;;;;;5051689;28;20055;-63
2023/03/20 13:08:21;;;;;;;6.38;3.25;;;;;;;;;;5050995;28;20082;-62
2023/03/20 13:10:49;;;;;;;12.63;4.13;;;;;;;;;;5050936;28;20036;-62
2023/03/20 13:13:41;;;;;;;9.50;4.03;;;;;;;;;;5037879;28;20082;-62
2023/03/20 13:16:06;;;;;;;12.07;4.05;;;;;;;;;;5040848;28;20022;-61
2023/03/20 13:18:43;;;;;;;18.15;3.88;;;;;;;;;;5041154;28;20035;-62
2023/03/20 13:21:12;;;;;;;6.68;3.40;;;;;;;;;;5033392;28;20032;-62
2023/03/20 13:23:38;;;;;;;7.95;3.65;;;;;;;;;;5040648;28;20040;-62
2023/03/20 13:26:18;;;;;;;11.70;4.40;;;;;;;;;;5035251;28;20026;-61
2023/03/20 13:29:19;;;;;;;8.40;4.07;;;;;;;;;;5043174;28;20271;-62
2023/03/20 13:32:05;;;;;;;7.20;3.35;;;;;;;;;;5030182;28;20104;-62
2023/03/20 13:34:37;;;;;;;17.70;4.30;;;;;;;;;;5034985;28;20095;-62
2023/03/20 13:37:09;;;;;;;8.73;3.78;;;;;;;;;;5033749;28;20052;-62
2023/03/20 13:39:46;;;;;;;6.05;2.97;;;;;;;;;;5033911;28;20499;-62
2023/03/20 13:42:13;;;;;;;9.00;3.72;;;;;;;;;;5041397;28;20033;-62
2023/03/20 13:44:40;;;;;;;8.27;3.45;;;;;;;;;;5039339;28;20443;-62
2023/03/20 13:47:09;;;;;;;11.25;3.70;;;;;;;;;;5043133;28;20021;-62
2023/03/20 13:49:36;;;;;;;9.75;3.58;;;;;;;;;;5049414;28;20108;-62
2023/03/20 13:52:20;;;;;;;7.65;3.70;;;;;;;;;;5050445;28;20036;-62
2023/03/20 13:55:00;;;;;;;8.93;3.85;;;;;;;;;;5045867;28;20017;-62
2023/03/20 13:57:26;;;;;;;8.30;3.40;;;;;;;;;;5040136;28;20017;-62
2023/03/20 14:00:00;;;;;;;11.77;4.07;;;;;;;;;;5043317;28;20032;-62
2023/03/20 14:02:37;;;;;;;13.02;3.60;;;;;;;;;;5040188;28;20029;-62
2023/03/20 14:05:13;;;;;;;7.07;3.10;;;;;;;;;;5043182;28;20072;-63
2023/03/20 14:07:41;;;;;;;5.45;2.80;;;;;;;;;;5042443;28;20028;-62
2023/03/20 14:10:15;;;;;;;8.95;3.25;;;;;;;;;;5048432;28;20078;-62
2023/03/20 14:12:40;;;;;;;7.13;3.22;;;;;;;;;;5051745;28;20186;-62
2023/03/20 14:15:10;;;;;;;6.47;3.20;;;;;;;;;;5051357;28;20127;-62
2023/03/20 14:17:42;;;;;;;8.98;3.33;;;;;;;;;;5047827;28;20476;-62
2023/03/20 14:20:12;;;;;;;9.55;3.80;;;;;;;;;;5036181;28;20025;-62
2023/03/20 14:22:39;;;;;;;11.93;3.17;;;;;;;;;;5033508;28;20025;-63
2023/03/20 14:25:07;;;;;;;10.38;3.53;;;;;;;;;;5035704;28;20037;-62
2023/03/20 14:27:51;;;;;;;8.32;3.55;;;;;;;;;;5035424;28;20027;-63
2023/03/20 14:30:28;;;;;;;8.57;3.00;;;;;;;;;;5039778;28;20029;-62
2023/03/20 14:33:14;;;;;;;6.70;2.97;;;;;;;;;;5047910;28;20041;-62
2023/03/20 14:35:45;;;;;;;9.70;3.80;;;;;;;;;;5042545;28;20059;-62
2023/03/20 14:38:19;;;;;;;8.23;3.45;;;;;;;;;;5051757;28;20100;-62